Allerton, Iowa
Current Conditions -  °F | °C
As of 10:15 AM on Wednesday 28 Jan 2015 (Local Time) from KCNC Reporting Station
Clear Clear  
Wind Chill: 25°   Ceiling: Unl
Heat Index: 36°   Visibility: 7mi
Dew Point: 32°   Wind: 17mph
Humidity: 87%   Direction: 150°SSE
Pressure: 29.93"   Gusts: 24mph
Location:  40.71°N, 93.37°W
Report Text: KCNC 281615Z AUTO 15015G21KT 7SM CLR 02/M00 A2993 RMK AO2
Loading
Personal Weather Stations






























Interactive Weather Map New forecast layout! Learn more

10-Day Weather Forecast

Advertisements
Track Severe Weather on mobile